首页
METAR-TAF:

METAR-TAF

机场 :

Grafenwöhr, 德国

纬度: 49-42N, 经度: 011-57E, 海拔: 415米

当前天气观测

该预报发布于18分钟前的03:46 UTC
风速8节,风向西转西南,有时为14节阵风
温度 8°C
湿度 87%
气压 1021 hPa
能见度10公里或以上
少量云层高于700英尺
阴天层高于1600英尺

METAR: ETIC 230346Z AUTO 24008G14KT 9999 FEW007 OVC016 08/06 A3015 RMK AO2 SLP217 $

时间: 05:04 (04:04 UTC)

预报

该预报发布于10小时和4分钟前的18:00 UTC
预报有效从21日的 18点(UTC)到 22日的 24点(UTC)
风速9节,风向西转西南
能见度10公里或以上
散云层高于3500英尺
成为
从 22日的 08点(UTC)到 22日的 09点(UTC)
风速12节,风向西转西南,有时为18节阵风
能见度10公里或以上
散云层高于5000英尺
短暂存在
从 22日的 11点(UTC)到 22日的 15点(UTC)
风速15节,风向西,有时为25节阵风
成为
从 22日的 18点(UTC)到 22日的 19点(UTC)
风速15节,风向西,有时为25节阵风
能見度: 2402
多云层高于1500英尺
阴天层高于3500英尺
小阵雨

TAF: ETIC 211800Z 2118/2224 25009KT 9999 SCT035 QNH3034INS BECMG 2208/2209 24012G18KT 9999 SCT050 QNH3031INS TEMPO 2211/2215 26015G25KT 510009 BECMG 2218/2219 26015G25KT 8000 -SHRA BKN015 OVC035 610159 510009 QNH3021INS TX09/2215Z TN02/2203Z LAST NO AMDS AFT 2122 NEXT 2402

超过4000个机场的气象观测和天气预报(METAR&TAF报告)。

可查询的气象台以黄色和红色小点在地图上表示。

将鼠标移到小点上方,可查看气象台名称。

然后点击查看天气观测和预报。

如需切换地图:点击带黑十字的绿色按钮放大地图;点击带横线的绿色按钮缩小地图;或者点击绿色箭头查看邻近地区的地图。


METAR-TAF: